Contacto @
curve curve curve curve

ESCUELA DE PILOTOS

Dron

CONTACTO INFORMACIÓN CURSO
PILOTO RPA - DRONES - UAV



Para más información, llamar al 972 23 41 26, enviar un email a info@aerbrava.com o rellenar el siguiente formulario.

Los campos marcados (*) son obligatorios

Nombre:
  

Teléfono:
  

*Email:
  

*Repita Email:
  

Texto:
  

He leído y acepto el tratamiento de datos personales y la política de privacidad

Matrícula abierta Piloto RPAs - Drones - UAVs.
Domingo
25 Junio de 2017
Página cargada a las 07:08 UTC
Orto: 04:18 UTC
Ocaso: 19:24 UTC

2017/06/25 07:00 LEGE 250700Z VRB01KT 9999 FEW010 BKN060 22/20 Q1017


2017/06/25 06:38 TAF AMD LEGE 250533Z 2506/2606 VRB03KT 9999 FEW030 TX35/2513Z TN21/2506Z PROB30 TEMPO 2506/2508 FEW040CB BECMG 2508/2510 18013KT PROB30 TEMPO 2513/2518 TSRA FEW040CB BECMG 2520/2522 VRB04KT
Sólo se muestran los aviones equipados con el sistema ADS-B en directo desde FlightRadar24
Aerbrava en el facebook Aerbrava en el youtube Aerbrava en el twitter Google+
Instagram tumblr flikr
logo inicio Nosotros | Mapa del sitio | Oportunidades profesionales | Privacidad | Contacte con nosotros | © 2017 AERBRAVA, SCP